Time;durP1;ratioP1;P1;durP2;ratioP2;P2;SDS_P1;SDS_P2;PMS_P1;PMS_P2;Temp;Humidity;BMP_temperature;BMP_pressure;BME280_temperature;BME280_humidity;BME280_pressure;Samples;Min_cycle;Max_cycle;Signal;HPM_P1;HPM_P2
2022/01/22 00:02:06;;;;;;;23.30;4.32;;;6.90;99.90;;;;;;4997416;28;20047;-89
2022/01/22 00:04:44;;;;;;;15.45;4.78;;;6.90;99.90;;;;;;5014185;28;20044;-89
2022/01/22 00:07:12;;;;;;;12.50;3.92;;;6.90;99.90;;;;;;4962868;28;20041;-88
2022/01/22 00:09:59;;;;;;;20.30;4.57;;;6.90;99.90;;;;;;4996774;28;20049;-88
2022/01/22 00:15:10;;;;;;;12.75;4.00;;;6.90;99.90;;;;;;4991274;28;20049;-88
2022/01/22 00:17:40;;;;;;;17.23;4.43;;;6.90;99.90;;;;;;5008938;28;20073;-88
2022/01/22 00:20:13;;;;;;;11.35;3.80;;;6.90;99.90;;;;;;5020921;28;20056;-87
2022/01/22 00:22:45;;;;;;;13.70;3.90;;;6.90;99.90;;;;;;4990844;28;20039;-88
2022/01/22 00:25:21;;;;;;;17.88;4.68;;;6.90;99.90;;;;;;4992662;28;20037;-88
2022/01/22 00:27:51;;;;;;;16.92;4.43;;;6.90;99.90;;;;;;4978161;28;20203;-88
2022/01/22 00:30:20;;;;;;;23.52;4.30;;;6.90;99.90;;;;;;5011979;28;20033;-88
2022/01/22 00:32:58;;;;;;;13.45;4.28;;;6.90;99.90;;;;;;4997196;28;20041;-89
2022/01/22 00:35:27;;;;;;;11.98;4.15;;;6.90;99.90;;;;;;4993482;28;20183;-89
2022/01/22 00:37:55;;;;;;;11.93;3.67;;;6.90;99.90;;;;;;5022421;28;20049;-88
2022/01/22 00:40:26;;;;;;;20.25;4.50;;;6.90;99.90;;;;;;4992981;28;20142;-88
2022/01/22 00:42:52;;;;;;;12.48;4.13;;;6.90;99.90;;;;;;4991632;28;20042;-89
2022/01/22 00:45:20;;;;;;;12.68;4.13;;;6.90;99.90;;;;;;5013907;28;20099;-87
2022/01/22 00:47:48;;;;;;;18.77;6.20;;;6.90;99.90;;;;;;5001116;28;20042;-88
2022/01/22 00:50:21;;;;;;;15.95;4.25;;;6.90;99.90;;;;;;4995781;28;20069;-87
2022/01/22 00:52:59;;;;;;;11.73;4.65;;;6.90;99.90;;;;;;4992214;28;20053;-87
2022/01/22 00:55:25;;;;;;;13.80;4.35;;;6.90;99.90;;;;;;5008077;28;20124;-88
2022/01/22 00:57:57;;;;;;;13.90;4.35;;;6.90;99.90;;;;;;4956261;28;20129;-88
2022/01/22 01:00:23;;;;;;;13.02;3.72;;;6.90;99.90;;;;;;4993007;28;20064;-88
2022/01/22 01:02:49;;;;;;;17.30;4.03;;;6.80;99.90;;;;;;4992411;28;20038;-89
2022/01/22 01:05:15;;;;;;;13.23;3.60;;;6.90;99.90;;;;;;4992571;28;20112;-86
2022/01/22 01:07:42;;;;;;;18.70;4.93;;;6.90;99.90;;;;;;4987412;28;20137;-86
2022/01/22 01:10:10;;;;;;;13.88;4.18;;;6.90;99.90;;;;;;5010304;28;20457;-86
2022/01/22 01:12:39;;;;;;;15.10;3.63;;;6.90;99.90;;;;;;5007807;28;20053;-86
2022/01/22 01:36:22;;;;;;;11.48;2.30;;;6.80;99.90;;;;;;5007971;28;20201;-86
2022/01/22 01:38:53;;;;;;;9.82;2.58;;;6.80;99.90;;;;;;4998346;28;20509;-86
2022/01/22 01:41:29;;;;;;;10.45;2.70;;;6.80;99.90;;;;;;4991801;28;20034;-86
2022/01/22 01:43:55;;;;;;;13.00;3.63;;;6.80;99.90;;;;;;5010411;28;20041;-86
2022/01/22 01:46:21;;;;;;;6.60;2.70;;;6.80;99.90;;;;;;5009844;28;20045;-85
2022/01/22 01:48:47;;;;;;;8.05;2.95;;;6.80;99.90;;;;;;5008808;28;20048;-87
2022/01/22 01:51:13;;;;;;;7.70;2.60;;;6.80;99.90;;;;;;5013257;28;20034;-86
2022/01/22 01:54:06;;;;;;;9.73;3.10;;;6.80;99.90;;;;;;5008816;28;20387;-86
2022/01/22 01:59:15;;;;;;;9.10;2.60;;;6.80;99.90;;;;;;5008588;28;20077;-86
2022/01/22 02:01:41;;;;;;;9.07;3.20;;;6.80;99.90;;;;;;5006420;28;20112;-87
2022/01/22 02:04:09;;;;;;;8.40;2.60;;;6.70;99.90;;;;;;5006257;28;20038;-87
2022/01/22 02:06:36;;;;;;;7.50;3.72;;;6.80;99.90;;;;;;5008233;28;20084;-87
2022/01/22 02:09:06;;;;;;;8.35;2.22;;;6.80;99.90;;;;;;5009935;28;20490;-87
2022/01/22 02:11:32;;;;;;;6.43;3.03;;;6.80;99.90;;;;;;4990398;28;20033;-87
2022/01/22 02:24:50;;;;;;;11.93;2.63;;;6.80;99.90;;;;;;5009943;28;20069;-87
2022/01/22 02:27:17;;;;;;;9.15;2.28;;;6.80;99.90;;;;;;5013513;28;20033;-87
2022/01/22 02:29:43;;;;;;;3.50;2.08;;;6.80;99.90;;;;;;4994757;28;20041;-87
2022/01/22 02:35:11;;;;;;;15.27;2.70;;;6.80;99.90;;;;;;5010039;28;20085;-87
2022/01/22 02:37:46;;;;;;;3.88;1.63;;;6.70;99.90;;;;;;5012691;28;20057;-88
2022/01/22 02:40:20;;;;;;;6.63;1.60;;;6.80;99.90;;;;;;5008310;28;21047;-75
2022/01/22 02:42:46;;;;;;;9.38;1.60;;;6.80;99.90;;;;;;4999925;28;20059;-75
2022/01/22 02:45:17;;;;;;;7.78;2.03;;;6.70;99.90;;;;;;4997117;28;20446;-76
2022/01/22 02:47:44;;;;;;;5.57;2.00;;;6.70;99.90;;;;;;4994800;28;20057;-75
2022/01/22 02:50:11;;;;;;;4.07;1.80;;;6.80;99.90;;;;;;5014385;28;20489;-75
2022/01/22 02:52:38;;;;;;;7.82;2.22;;;6.80;99.90;;;;;;4979567;28;20141;-76
2022/01/22 02:55:07;;;;;;;5.53;2.10;;;6.70;99.90;;;;;;5029276;28;20140;-75
2022/01/22 02:57:34;;;;;;;7.85;2.00;;;6.70;99.90;;;;;;5027621;28;20087;-75
2022/01/22 03:00:00;;;;;;;7.05;2.28;;;6.80;99.90;;;;;;5012155;28;20034;-75
2022/01/22 03:02:27;;;;;;;5.78;2.85;;;6.70;99.90;;;;;;5040267;28;20136;-75
2022/01/22 03:04:53;;;;;;;8.00;2.17;;;6.70;99.90;;;;;;4998824;28;20030;-76
2022/01/22 03:07:19;;;;;;;8.00;2.47;;;6.70;99.90;;;;;;5010847;28;20051;-75
2022/01/22 03:09:47;;;;;;;6.60;2.33;;;6.70;99.90;;;;;;5030720;28;20029;-75
2022/01/22 03:17:36;;;;;;;13.68;2.63;;;6.70;99.90;;;;;;5011792;28;20053;-75
2022/01/22 03:20:22;;;;;;;5.28;2.20;;;6.70;99.90;;;;;;5026559;28;20075;-75
2022/01/22 03:27:59;;;;;;;6.03;2.70;;;6.80;99.90;;;;;;5010755;28;20061;-75
2022/01/22 03:30:25;;;;;;;6.63;2.97;;;6.70;99.90;;;;;;5008845;28;20049;-75
2022/01/22 03:32:54;;;;;;;4.05;1.95;;;6.70;99.90;;;;;;4994948;28;20057;-76
2022/01/22 03:37:51;;;;;;;8.82;3.15;;;6.70;99.90;;;;;;4998879;28;20122;-76
2022/01/22 03:40:20;;;;;;;5.38;1.50;;;6.70;99.90;;;;;;5007819;28;20378;-75
2022/01/22 03:42:47;;;;;;;6.00;1.88;;;6.70;99.90;;;;;;5011092;28;20187;-76
2022/01/22 03:45:13;;;;;;;5.30;2.00;;;6.70;99.90;;;;;;5010296;28;20558;-75
2022/01/22 03:47:40;;;;;;;6.13;1.60;;;6.70;99.90;;;;;;5015410;28;20041;-75
2022/01/22 03:50:08;;;;;;;2.88;1.67;;;6.70;99.90;;;;;;5008697;28;20033;-76
2022/01/22 03:52:33;;;;;;;11.55;2.00;;;6.70;99.90;;;;;;4994547;28;20042;-75
2022/01/22 03:54:59;;;;;;;10.23;2.17;;;6.70;99.90;;;;;;4996264;28;20048;-75
2022/01/22 03:57:25;;;;;;;4.57;1.50;;;6.70;99.90;;;;;;5012477;28;20045;-75
2022/01/22 03:59:54;;;;;;;3.45;2.00;;;6.70;99.90;;;;;;5026010;28;20079;-75
2022/01/22 04:05:06;;;;;;;7.57;2.78;;;6.70;99.90;;;;;;5025832;28;20045;-75
2022/01/22 04:10:20;;;;;;;8.52;2.47;;;6.70;99.90;;;;;;5001360;28;20124;-75
2022/01/22 04:12:52;;;;;;;8.25;2.40;;;6.70;99.90;;;;;;5029214;28;20042;-76
2022/01/22 04:15:23;;;;;;;7.32;2.05;;;6.70;99.90;;;;;;5008677;28;20061;-76
2022/01/22 04:28:59;;;;;;;7.05;2.17;;;6.60;99.90;;;;;;5008378;28;20451;-76
2022/01/22 04:31:24;;;;;;;2.88;1.38;;;6.70;99.90;;;;;;5009164;28;20067;-76
2022/01/22 04:33:51;;;;;;;6.45;2.03;;;6.70;99.90;;;;;;5010508;28;20052;-76
2022/01/22 04:36:17;;;;;;;5.88;2.10;;;6.60;99.90;;;;;;5008317;28;20053;-76
2022/01/22 04:38:44;;;;;;;5.35;2.38;;;6.60;99.90;;;;;;5010608;28;20048;-76
2022/01/22 04:41:10;;;;;;;5.47;1.95;;;6.60;99.90;;;;;;5026079;28;20042;-76
2022/01/22 04:43:38;;;;;;;5.15;1.90;;;6.70;99.90;;;;;;5014458;28;20037;-76
2022/01/22 04:46:16;;;;;;;6.45;1.92;;;6.60;99.90;;;;;;4995340;28;20040;-76
2022/01/22 04:57:09;;;;;;;6.47;1.70;;;6.60;99.90;;;;;;4993527;28;20056;-76
2022/01/22 04:59:35;;;;;;;3.25;1.60;;;6.60;99.90;;;;;;4965591;28;20049;-76
2022/01/22 05:02:01;;;;;;;8.90;1.77;;;6.60;99.90;;;;;;5001824;28;20094;-76
2022/01/22 05:04:26;;;;;;;6.18;1.50;;;6.70;99.90;;;;;;5000503;28;20115;-76
2022/01/22 05:06:52;;;;;;;4.93;1.40;;;6.70;99.90;;;;;;5024509;28;20056;-76
2022/01/22 05:09:18;;;;;;;4.95;1.73;;;6.70;99.90;;;;;;4997950;28;20049;-76
2022/01/22 05:11:44;;;;;;;2.97;1.23;;;6.60;99.90;;;;;;5030219;28;20068;-76
2022/01/22 05:14:09;;;;;;;4.55;1.38;;;6.70;99.90;;;;;;4997693;28;20089;-76
2022/01/22 05:16:35;;;;;;;7.13;1.35;;;6.70;99.90;;;;;;4999349;28;20033;-76
2022/01/22 05:19:09;;;;;;;4.28;2.08;;;6.70;99.90;;;;;;4995373;28;20038;-76
2022/01/22 05:21:37;;;;;;;3.72;1.80;;;6.70;99.90;;;;;;5002329;28;20042;-76
2022/01/22 05:24:08;;;;;;;7.28;2.20;;;6.70;99.90;;;;;;4977814;28;20036;-76
2022/01/22 05:29:55;;;;;;;8.13;1.85;;;6.60;99.90;;;;;;4998724;28;20049;-76
2022/01/22 05:32:31;;;;;;;7.93;2.22;;;6.60;99.90;;;;;;4996826;28;20050;-76
2022/01/22 05:37:41;;;;;;;10.25;2.40;;;6.60;99.90;;;;;;4999426;28;20048;-76
2022/01/22 05:40:07;;;;;;;7.32;1.80;;;6.70;99.90;;;;;;5000456;28;20131;-76
2022/01/22 05:42:36;;;;;;;4.32;1.40;;;6.60;99.90;;;;;;4996201;28;20052;-76
2022/01/22 05:45:04;;;;;;;6.72;1.50;;;6.60;99.90;;;;;;4981066;28;20045;-76
2022/01/22 05:47:30;;;;;;;4.75;1.88;;;6.60;99.90;;;;;;5015581;28;20640;-77
2022/01/22 05:49:56;;;;;;;4.93;1.75;;;6.60;99.90;;;;;;4994958;28;20042;-76
2022/01/22 05:52:39;;;;;;;5.45;1.70;;;6.60;99.90;;;;;;5014601;28;20400;-76
2022/01/22 05:55:38;;;;;;;4.57;1.52;;;6.60;99.90;;;;;;5010360;28;20045;-76
2022/01/22 06:00:41;;;;;;;9.73;1.45;;;6.50;99.90;;;;;;5005306;28;20149;-76
2022/01/22 06:03:08;;;;;;;5.25;2.35;;;6.50;99.90;;;;;;4998600;28;20603;-76
2022/01/22 06:05:34;;;;;;;5.50;2.30;;;6.50;99.90;;;;;;5012562;28;20414;-76
2022/01/22 06:08:00;;;;;;;5.15;1.88;;;6.50;99.90;;;;;;5008019;28;20099;-76
2022/01/22 06:10:29;;;;;;;7.13;2.35;;;6.50;99.90;;;;;;4993774;28;20048;-76
2022/01/22 06:13:11;;;;;;;9.43;2.28;;;6.50;99.90;;;;;;4979339;28;20492;-76
2022/01/22 06:15:38;;;;;;;5.68;2.00;;;6.50;99.90;;;;;;5004668;28;20388;-76
2022/01/22 06:18:04;;;;;;;9.82;3.03;;;6.50;99.90;;;;;;4994000;28;20041;-76
2022/01/22 06:20:29;;;;;;;6.63;1.95;;;6.50;99.90;;;;;;4975671;28;20049;-76
2022/01/22 06:22:55;;;;;;;5.28;1.70;;;6.50;99.90;;;;;;5011115;28;20041;-76
2022/01/22 06:25:21;;;;;;;4.35;1.58;;;6.50;99.90;;;;;;4980428;28;20129;-76
2022/01/22 06:27:47;;;;;;;11.40;2.05;;;6.40;99.90;;;;;;4992390;28;20060;-76
2022/01/22 06:30:13;;;;;;;5.90;1.48;;;6.40;99.90;;;;;;5013833;28;20034;-76
2022/01/22 06:32:38;;;;;;;3.67;1.52;;;6.40;99.90;;;;;;4995444;28;20041;-76
2022/01/22 06:35:05;;;;;;;3.72;1.52;;;6.40;99.90;;;;;;4977078;28;20049;-76
2022/01/22 06:37:30;;;;;;;3.28;1.38;;;6.40;99.90;;;;;;4997038;28;20052;-88
2022/01/22 06:42:32;;;;;;;5.28;2.00;;;6.40;99.90;;;;;;5026950;28;20043;-76
2022/01/22 06:44:59;;;;;;;4.32;1.52;;;6.40;99.90;;;;;;4999088;28;20456;-88
2022/01/22 06:47:26;;;;;;;4.28;2.00;;;6.40;99.90;;;;;;4999371;28;20069;-88
2022/01/22 06:49:52;;;;;;;4.03;2.28;;;6.40;99.90;;;;;;4994386;28;20339;-75
2022/01/22 06:52:18;;;;;;;3.00;1.80;;;6.40;99.90;;;;;;5001203;28;20076;-87
2022/01/22 06:54:44;;;;;;;4.47;1.85;;;6.40;99.90;;;;;;5031864;28;20076;-88
2022/01/22 06:57:11;;;;;;;6.68;1.77;;;6.30;99.90;;;;;;5013830;28;20051;-88
2022/01/22 06:59:37;;;;;;;5.25;1.67;;;6.40;99.90;;;;;;5015715;28;20041;-87
2022/01/22 07:02:04;;;;;;;2.42;1.30;;;6.40;99.90;;;;;;5016685;28;20092;-88
2022/01/22 07:04:31;;;;;;;3.90;1.85;;;6.40;99.90;;;;;;5014855;28;20099;-88
2022/01/22 07:06:57;;;;;;;9.05;2.15;;;6.40;99.90;;;;;;5013822;28;20133;-88
2022/01/22 07:09:23;;;;;;;5.13;2.03;;;6.40;99.90;;;;;;4999089;28;20049;-86
2022/01/22 07:11:49;;;;;;;8.57;2.20;;;6.40;99.90;;;;;;4997873;28;20508;-88
2022/01/22 07:14:16;;;;;;;5.57;2.40;;;6.40;99.90;;;;;;4997407;28;20049;-87
2022/01/22 07:16:42;;;;;;;6.47;2.38;;;6.40;99.90;;;;;;5007991;28;20103;-89
2022/01/22 07:19:08;;;;;;;4.53;1.73;;;6.40;99.90;;;;;;5018314;28;20382;-88
2022/01/22 07:21:36;;;;;;;7.10;2.40;;;6.40;99.90;;;;;;5011330;28;20057;-88
2022/01/22 07:26:29;;;;;;;10.25;3.25;;;6.40;99.90;;;;;;4997725;28;20045;-88
2022/01/22 07:28:57;;;;;;;5.40;2.10;;;6.40;99.90;;;;;;4980899;28;20136;-88
2022/01/22 07:31:25;;;;;;;9.00;3.42;;;6.40;99.90;;;;;;5013788;28;20173;-88
2022/01/22 07:33:50;;;;;;;8.68;2.55;;;6.40;99.90;;;;;;4993057;28;20068;-88
2022/01/22 07:36:17;;;;;;;6.50;2.60;;;6.40;99.90;;;;;;5016094;28;20069;-88
2022/01/22 07:38:43;;;;;;;11.90;3.10;;;6.40;99.90;;;;;;4995218;28;20505;-88
2022/01/22 07:41:09;;;;;;;13.93;3.47;;;6.40;99.90;;;;;;4997995;28;20111;-88
2022/01/22 07:43:36;;;;;;;10.98;3.90;;;6.40;99.90;;;;;;4985703;28;20076;-88
2022/01/22 07:46:03;;;;;;;13.05;3.70;;;6.40;99.90;;;;;;4990039;28;20048;-87
2022/01/22 07:48:28;;;;;;;10.57;4.40;;;6.40;99.90;;;;;;4995788;28;20069;-86
2022/01/22 07:50:54;;;;;;;11.38;3.45;;;6.40;99.90;;;;;;5011651;28;20084;-87
2022/01/22 07:53:20;;;;;;;10.45;3.50;;;6.40;99.90;;;;;;5026568;28;20045;-86
2022/01/22 07:55:46;;;;;;;8.32;2.80;;;6.40;99.90;;;;;;5011127;28;20042;-87
2022/01/22 07:58:11;;;;;;;13.55;4.05;;;6.40;99.90;;;;;;4988971;28;20037;-87
2022/01/22 08:00:38;;;;;;;8.48;3.00;;;6.40;99.90;;;;;;5006354;28;20041;-88
2022/01/22 08:03:06;;;;;;;8.70;3.88;;;6.40;99.90;;;;;;5006021;28;20048;-88
2022/01/22 08:05:32;;;;;;;7.78;2.85;;;6.40;99.90;;;;;;4989350;28;20065;-88
2022/01/22 08:07:57;;;;;;;5.78;2.70;;;6.50;99.90;;;;;;4993511;28;20083;-89
2022/01/22 08:10:23;;;;;;;6.68;3.03;;;6.40;99.90;;;;;;5001947;28;20037;-89
2022/01/22 08:12:50;;;;;;;7.82;2.58;;;6.40;99.90;;;;;;5023455;28;20045;-88
2022/01/22 08:15:17;;;;;;;9.43;3.00;;;6.50;99.90;;;;;;4962851;28;20283;-87
2022/01/22 08:17:43;;;;;;;9.50;2.65;;;6.50;99.90;;;;;;4990311;28;20060;-86
2022/01/22 08:20:14;;;;;;;5.53;2.65;;;6.50;99.90;;;;;;5006367;28;20045;-82
2022/01/22 08:22:44;;;;;;;6.55;2.75;;;6.50;99.90;;;;;;4994043;28;20044;-82
2022/01/22 08:25:11;;;;;;;8.65;2.65;;;6.50;99.90;;;;;;5006130;28;20116;-80
2022/01/22 08:30:10;;;;;;;6.88;2.22;;;6.50;99.90;;;;;;5022894;28;20041;-82
2022/01/22 08:37:49;;;;;;;12.73;2.65;;;6.50;99.90;;;;;;5007806;28;20422;-83
2022/01/22 08:40:14;;;;;;;7.78;2.90;;;6.50;99.90;;;;;;5008647;28;20082;-83
2022/01/22 08:42:40;;;;;;;6.35;2.58;;;6.50;99.90;;;;;;5009515;28;20321;-85
2022/01/22 08:45:07;;;;;;;5.78;2.50;;;6.50;99.90;;;;;;5008637;28;20025;-84
2022/01/22 08:47:33;;;;;;;6.60;2.15;;;6.50;99.90;;;;;;5009325;28;20401;-85
2022/01/22 08:49:58;;;;;;;12.25;3.13;;;6.50;99.90;;;;;;5008900;28;20052;-84
2022/01/22 08:52:29;;;;;;;10.90;2.72;;;6.50;99.90;;;;;;5008218;28;20441;-84
2022/01/22 08:54:55;;;;;;;8.40;3.03;;;6.50;99.90;;;;;;5006077;28;20064;-84
2022/01/22 08:57:21;;;;;;;11.90;3.17;;;6.50;99.90;;;;;;5007382;28;20037;-85
2022/01/22 08:59:46;;;;;;;13.60;2.70;;;6.50;99.90;;;;;;5008070;28;20064;-84
2022/01/22 09:02:14;;;;;;;7.95;2.70;;;6.50;99.90;;;;;;5007011;28;20123;-85
2022/01/22 09:04:41;;;;;;;13.60;3.00;;;6.50;99.90;;;;;;5005582;28;20071;-84
2022/01/22 09:07:07;;;;;;;6.18;2.30;;;6.50;99.90;;;;;;5006718;28;20049;-84
2022/01/22 09:09:35;;;;;;;10.77;2.83;;;6.50;99.90;;;;;;5006030;28;20375;-84
2022/01/22 09:12:03;;;;;;;9.52;3.22;;;6.50;99.90;;;;;;5005223;28;20128;-83
2022/01/22 09:14:31;;;;;;;11.75;2.55;;;6.60;99.90;;;;;;5006769;28;20053;-82
2022/01/22 09:16:59;;;;;;;8.27;2.38;;;6.60;99.90;;;;;;5002507;28;20406;-83
2022/01/22 09:19:33;;;;;;;11.55;3.38;;;6.60;99.90;;;;;;5003089;28;20478;-82
2022/01/22 09:21:59;;;;;;;28.50;3.85;;;6.60;99.90;;;;;;5025388;28;20385;-83
2022/01/22 09:24:25;;;;;;;13.48;4.45;;;6.60;99.90;;;;;;5006394;28;20052;-82
2022/01/22 09:26:52;;;;;;;5.82;2.38;;;6.60;99.90;;;;;;5005596;28;20045;-83
2022/01/22 09:29:18;;;;;;;5.13;2.33;;;6.60;99.90;;;;;;5008477;28;20072;-82
2022/01/22 09:31:52;;;;;;;11.32;2.30;;;6.60;99.90;;;;;;5004457;28;20045;-74
2022/01/22 09:34:20;;;;;;;8.37;2.87;;;6.60;99.90;;;;;;5020806;28;20049;-74
2022/01/22 09:36:46;;;;;;;8.93;2.38;;;6.60;99.90;;;;;;5007404;28;20572;-74
2022/01/22 09:39:12;;;;;;;8.73;2.47;;;6.60;99.90;;;;;;5022680;28;20038;-74
2022/01/22 09:41:38;;;;;;;4.80;2.22;;;6.70;99.90;;;;;;5019719;28;20041;-74
2022/01/22 09:44:05;;;;;;;11.13;2.88;;;6.70;99.90;;;;;;4988907;28;20038;-74
2022/01/22 09:46:32;;;;;;;6.75;2.33;;;6.70;99.90;;;;;;5026086;28;20558;-74
2022/01/22 09:48:58;;;;;;;8.25;2.90;;;6.70;99.90;;;;;;5012511;28;20489;-74
2022/01/22 09:51:24;;;;;;;4.05;2.20;;;6.70;99.90;;;;;;5020509;28;20148;-74
2022/01/22 09:53:50;;;;;;;9.70;2.80;;;6.70;99.90;;;;;;5008766;28;20041;-75
2022/01/22 09:56:22;;;;;;;9.70;3.00;;;6.70;99.90;;;;;;5011505;28;20686;-74
2022/01/22 09:58:49;;;;;;;8.70;2.78;;;6.70;99.90;;;;;;5009135;28;20110;-74
2022/01/22 10:01:28;;;;;;;9.52;3.70;;;6.70;99.90;;;;;;4992673;28;20508;-74
2022/01/22 10:03:56;;;;;;;8.43;2.95;;;6.70;99.90;;;;;;5008751;28;20041;-75
2022/01/22 10:06:27;;;;;;;9.07;3.72;;;6.80;99.90;;;;;;5002335;28;20045;-77
2022/01/22 10:09:13;;;;;;;8.90;3.03;;;6.70;99.90;;;;;;5007498;28;20119;-77
2022/01/22 10:11:40;;;;;;;7.90;2.97;;;6.70;99.90;;;;;;5004823;28;20524;-78
2022/01/22 10:14:07;;;;;;;10.40;4.80;;;6.80;99.90;;;;;;5005623;28;20049;-77
2022/01/22 10:16:35;;;;;;;11.95;4.07;;;6.80;99.90;;;;;;5010519;28;20040;-77
2022/01/22 10:19:12;;;;;;;12.05;4.18;;;6.80;99.90;;;;;;5024217;28;20169;-77
2022/01/22 10:21:41;;;;;;;14.38;4.40;;;6.80;99.90;;;;;;5026275;28;20033;-77
2022/01/22 10:24:43;;;;;;;10.32;3.70;;;6.80;99.90;;;;;;5011748;28;20061;-78
2022/01/22 10:27:29;;;;;;;9.32;3.75;;;6.80;99.90;;;;;;5025183;28;20373;-78
2022/01/22 10:29:58;;;;;;;10.40;4.13;;;6.80;99.90;;;;;;5006010;28;20041;-77
2022/01/22 10:32:50;;;;;;;12.48;3.72;;;6.80;99.90;;;;;;5027262;28;20088;-78
2022/01/22 10:35:25;;;;;;;17.38;5.32;;;6.80;99.90;;;;;;4995910;28;20157;-77
2022/01/22 10:38:02;;;;;;;17.20;4.30;;;6.90;99.90;;;;;;4990256;28;20045;-77
2022/01/22 10:40:37;;;;;;;8.88;3.22;;;6.90;99.90;;;;;;5025433;28;20311;-78
2022/01/22 10:43:27;;;;;;;8.70;3.75;;;6.80;99.90;;;;;;5009007;28;20236;-77
2022/01/22 10:46:07;;;;;;;13.75;4.30;;;6.90;99.90;;;;;;5003427;28;20450;-77
2022/01/22 10:48:35;;;;;;;9.70;3.47;;;6.90;99.90;;;;;;5027468;28;20045;-78
2022/01/22 10:51:09;;;;;;;13.48;4.00;;;6.90;99.90;;;;;;5012221;28;20041;-78
2022/01/22 10:53:48;;;;;;;8.75;2.88;;;6.90;99.90;;;;;;5024653;28;20065;-77
2022/01/22 10:56:20;;;;;;;8.63;3.70;;;6.90;99.90;;;;;;5025122;28;20098;-75
2022/01/22 10:59:02;;;;;;;11.45;4.13;;;6.90;99.90;;;;;;5027818;28;20045;-75
2022/01/22 11:01:51;;;;;;;8.38;3.47;;;6.90;99.90;;;;;;5023378;28;20600;-75
2022/01/22 11:04:26;;;;;;;10.05;3.53;;;6.90;99.90;;;;;;5023294;28;20567;-74
2022/01/22 11:07:00;;;;;;;10.93;3.45;;;6.90;99.90;;;;;;5011497;28;20049;-74
2022/01/22 11:09:29;;;;;;;9.20;3.13;;;6.90;99.90;;;;;;5024002;28;20041;-74
2022/01/22 11:11:55;;;;;;;9.52;3.00;;;6.90;99.90;;;;;;5009777;28;20084;-74
2022/01/22 11:14:22;;;;;;;8.68;2.80;;;6.90;99.90;;;;;;5000699;28;20054;-74
2022/01/22 11:16:50;;;;;;;11.30;3.03;;;7.00;99.90;;;;;;5005150;28;20060;-74
2022/01/22 11:19:21;;;;;;;8.27;3.83;;;6.90;99.90;;;;;;5008631;28;20478;-76
2022/01/22 11:21:49;;;;;;;8.45;2.78;;;7.00;99.90;;;;;;4997953;28;20037;-79
2022/01/22 11:24:22;;;;;;;12.13;3.00;;;7.00;99.90;;;;;;4990206;28;20044;-74
2022/01/22 11:26:53;;;;;;;8.90;2.80;;;7.00;99.90;;;;;;4991320;28;20053;-74
2022/01/22 11:29:23;;;;;;;7.15;2.70;;;7.00;99.90;;;;;;5022344;28;20528;-74
2022/01/22 11:31:52;;;;;;;8.30;2.47;;;7.00;99.90;;;;;;5024171;28;20413;-74
2022/01/22 11:34:22;;;;;;;9.05;3.10;;;7.00;99.90;;;;;;5023824;28;20072;-74
2022/01/22 11:36:58;;;;;;;6.72;2.58;;;7.00;99.90;;;;;;5004223;28;20508;-75
2022/01/22 11:39:25;;;;;;;7.38;2.30;;;7.00;99.90;;;;;;5021590;28;20039;-74
2022/01/22 11:41:57;;;;;;;4.80;2.22;;;7.00;99.90;;;;;;5024114;28;20152;-74
2022/01/22 11:44:31;;;;;;;10.50;3.10;;;7.00;99.90;;;;;;5019916;28;20122;-74
2022/01/22 11:47:12;;;;;;;13.95;2.88;;;7.00;99.90;;;;;;5005670;28;20084;-74
2022/01/22 11:49:40;;;;;;;10.00;3.58;;;7.00;99.90;;;;;;5005580;28;20122;-74
2022/01/22 11:52:09;;;;;;;9.00;2.33;;;7.00;99.90;;;;;;5022596;28;20118;-77
2022/01/22 11:55:00;;;;;;;15.05;2.63;;;7.00;99.90;;;;;;5007510;28;20386;-74
2022/01/22 11:57:31;;;;;;;14.00;2.63;;;7.00;99.90;;;;;;5020268;28;20133;-74
2022/01/22 12:00:20;;;;;;;5.63;2.08;;;7.00;99.90;;;;;;5017580;28;20143;-74
2022/01/22 12:03:22;;;;;;;6.95;2.40;;;7.00;99.90;;;;;;5025876;28;20053;-74
2022/01/22 12:05:53;;;;;;;7.85;2.58;;;7.00;99.90;;;;;;4948392;28;20043;-74
2022/01/22 12:08:20;;;;;;;12.35;2.58;;;7.00;99.90;;;;;;5005710;28;20402;-74
2022/01/22 12:16:41;;;;;;;9.20;2.33;;;7.00;99.90;;;;;;4984616;28;20076;-75
2022/01/22 12:19:49;;;;;;;7.90;2.05;;;7.00;99.90;;;;;;4948156;28;20089;-74
2022/01/22 12:22:34;;;;;;;10.30;2.55;;;7.00;99.90;;;;;;4976455;28;20041;-74
2022/01/22 12:25:21;;;;;;;5.13;1.83;;;7.00;99.90;;;;;;4969033;28;20171;-74
2022/01/22 12:27:50;;;;;;;10.32;2.60;;;7.00;99.90;;;;;;4975804;28;20361;-74
2022/01/22 12:30:39;;;;;;;12.00;2.67;;;7.00;99.90;;;;;;5005106;28;20402;-74
2022/01/22 12:33:12;;;;;;;7.60;2.05;;;7.00;99.90;;;;;;5004472;28;20069;-74
2022/01/22 12:35:42;;;;;;;9.10;2.83;;;7.00;99.90;;;;;;5001073;28;20049;-74
2022/01/22 12:38:37;;;;;;;7.75;2.55;;;7.00;99.90;;;;;;5002294;28;20049;-74
2022/01/22 12:44:15;;;;;;;15.43;4.57;;;7.00;99.90;;;;;;4990067;28;20448;-74
2022/01/22 12:46:41;;;;;;;10.85;3.35;;;7.00;99.90;;;;;;4982437;28;20037;-74
2022/01/22 12:49:08;;;;;;;8.07;2.83;;;6.90;99.90;;;;;;5002806;28;20368;-74
2022/01/22 12:51:35;;;;;;;5.80;2.35;;;6.90;99.90;;;;;;4988008;28;20064;-74
2022/01/22 12:54:02;;;;;;;6.75;2.17;;;6.90;99.90;;;;;;5003461;28;20069;-74
2022/01/22 12:59:08;;;;;;;6.07;2.63;;;6.90;99.90;;;;;;4998626;28;20049;-74
2022/01/22 13:01:42;;;;;;;4.68;2.05;;;6.90;99.90;;;;;;5000343;28;20112;-74
2022/01/22 13:04:09;;;;;;;13.88;3.33;;;6.90;99.90;;;;;;5004526;28;20073;-75
2022/01/22 13:06:42;;;;;;;6.07;1.98;;;7.00;99.90;;;;;;4973017;28;20046;-74
2022/01/22 13:09:10;;;;;;;4.05;1.67;;;7.00;99.90;;;;;;5005333;28;20105;-73
2022/01/22 13:11:44;;;;;;;9.07;1.70;;;6.90;99.90;;;;;;5005788;28;20082;-75
2022/01/22 13:14:11;;;;;;;7.85;1.85;;;6.90;99.90;;;;;;4989641;28;20053;-76
2022/01/22 13:16:50;;;;;;;4.82;1.75;;;7.00;99.90;;;;;;5005752;28;20055;-76
2022/01/22 13:19:16;;;;;;;12.23;2.50;;;7.00;99.90;;;;;;4989781;28;20046;-76
2022/01/22 13:21:50;;;;;;;2.67;1.02;;;7.00;99.90;;;;;;5008994;28;20033;-73
2022/01/22 13:24:16;;;;;;;4.20;1.65;;;7.00;99.90;;;;;;5026211;28;20054;-74
2022/01/22 13:26:52;;;;;;;8.45;2.15;;;7.00;99.90;;;;;;5007294;28;20041;-74
2022/01/22 13:29:19;;;;;;;6.68;3.15;;;6.90;99.90;;;;;;5006589;28;20034;-74
2022/01/22 13:32:18;;;;;;;6.15;1.90;;;6.90;99.90;;;;;;5024353;28;20041;-74
2022/01/22 13:49:21;;;;;;;5.93;2.17;;;6.90;99.90;;;;;;5004659;28;20128;-73
2022/01/22 13:51:47;;;;;;;6.38;2.13;;;6.90;99.90;;;;;;5008290;28;20509;-74
2022/01/22 13:54:14;;;;;;;7.25;2.42;;;6.90;99.90;;;;;;5007581;28;20033;-74
2022/01/22 13:56:53;;;;;;;13.18;2.22;;;6.90;99.90;;;;;;4975229;28;20074;-74
2022/01/22 13:59:43;;;;;;;5.60;2.15;;;6.90;99.90;;;;;;5023432;28;20042;-74
2022/01/22 14:02:16;;;;;;;8.98;2.58;;;6.90;99.90;;;;;;5022008;28;20056;-74
2022/01/22 14:04:45;;;;;;;8.85;2.30;;;6.90;99.90;;;;;;5024294;28;20033;-74
2022/01/22 14:07:33;;;;;;;4.70;1.95;;;6.90;99.90;;;;;;5008662;28;20098;-73
2022/01/22 14:10:05;;;;;;;11.25;2.97;;;6.90;99.90;;;;;;5006647;28;20037;-74
2022/01/22 14:12:59;;;;;;;6.22;2.42;;;6.90;99.90;;;;;;5008064;28;20102;-74
2022/01/22 14:15:31;;;;;;;6.95;1.85;;;6.90;99.90;;;;;;4994044;28;20537;-74
2022/01/22 14:18:20;;;;;;;4.47;1.50;;;6.90;99.90;;;;;;5010172;28;20458;-83
2022/01/22 14:21:06;;;;;;;4.85;1.80;;;6.90;99.90;;;;;;5009448;28;20200;-84
2022/01/22 14:23:36;;;;;;;5.22;1.42;;;6.80;99.90;;;;;;5009525;28;20046;-83
2022/01/22 14:26:02;;;;;;;7.15;1.70;;;6.80;99.90;;;;;;5006876;28;20122;-84
2022/01/22 14:28:47;;;;;;;5.13;1.40;;;6.80;99.90;;;;;;5008548;28;20065;-84
2022/01/22 14:31:19;;;;;;;4.43;1.58;;;6.80;99.90;;;;;;5008836;28;20401;-84
2022/01/22 14:33:45;;;;;;;5.88;1.50;;;6.80;99.90;;;;;;5008102;28;20048;-82
2022/01/22 14:36:19;;;;;;;6.75;1.92;;;6.80;99.90;;;;;;5008394;28;20052;-82
2022/01/22 14:38:53;;;;;;;3.55;1.40;;;6.70;99.90;;;;;;5008519;28;20049;-84
2022/01/22 14:46:52;;;;;;;10.98;1.90;;;6.70;99.90;;;;;;5007622;28;20053;-85
2022/01/22 14:49:28;;;;;;;5.82;1.42;;;6.70;99.90;;;;;;5007500;28;20049;-84
2022/01/22 14:51:54;;;;;;;6.65;2.13;;;6.70;99.90;;;;;;5006059;28;20075;-85
2022/01/22 14:54:22;;;;;;;9.32;1.50;;;6.70;99.90;;;;;;5007516;28;20044;-85
2022/01/22 14:56:48;;;;;;;4.75;1.40;;;6.60;99.90;;;;;;5007496;28;20056;-85
2022/01/22 14:59:14;;;;;;;4.43;1.08;;;6.70;99.90;;;;;;5007266;28;20478;-85
2022/01/22 15:01:40;;;;;;;7.03;1.67;;;6.60;99.90;;;;;;5023830;28;20390;-85
2022/01/22 15:04:06;;;;;;;4.25;1.40;;;6.60;99.90;;;;;;5011224;28;20076;-86
2022/01/22 15:06:32;;;;;;;3.53;1.58;;;6.70;99.90;;;;;;4994359;28;20107;-89
2022/01/22 15:08:58;;;;;;;2.83;1.10;;;6.60;99.90;;;;;;5008826;28;20128;-84
2022/01/22 15:11:23;;;;;;;5.57;1.10;;;6.60;99.90;;;;;;4978907;28;20046;-84
2022/01/22 15:13:49;;;;;;;5.45;1.20;;;6.60;99.90;;;;;;4994160;28;20048;-84
2022/01/22 15:16:18;;;;;;;7.07;1.90;;;6.70;99.90;;;;;;5020967;28;20133;-85
2022/01/22 15:21:11;;;;;;;5.57;1.52;;;6.60;99.90;;;;;;5009245;28;20045;-85
2022/01/22 15:23:38;;;;;;;4.65;1.40;;;6.60;99.90;;;;;;5009845;28;20048;-84